createdAt,value
2018-05-17T00:00:43.143Z,100512.56
2018-05-17T00:03:10.527Z,100526.67
2018-05-17T00:05:37.919Z,100521.11
2018-05-17T00:08:05.307Z,100529.11
2018-05-17T00:10:32.696Z,100528.05
2018-05-17T00:13:00.096Z,100535.18
2018-05-17T00:15:27.632Z,100523.08
2018-05-17T00:17:55.024Z,100533.56
2018-05-17T00:20:22.410Z,100534.23
2018-05-17T00:22:49.808Z,100538.58
2018-05-17T00:25:17.190Z,100539.15
2018-05-17T00:27:44.592Z,100542.35
2018-05-17T00:30:11.984Z,100546.30
2018-05-17T00:32:39.383Z,100541.25
2018-05-17T00:35:06.773Z,100544.91
2018-05-17T00:37:34.158Z,100547.72
2018-05-17T00:40:01.551Z,100547.66
2018-05-17T00:42:28.943Z,100549.80
2018-05-17T00:44:56.343Z,100544.75
2018-05-17T00:47:23.735Z,100552.17
2018-05-17T00:49:51.218Z,100549.05
2018-05-17T00:52:18.631Z,100550.39
2018-05-17T00:54:46.215Z,100547.20
2018-05-17T00:57:13.610Z,100553.25
2018-05-17T00:59:41.084Z,100552.69
2018-05-17T01:02:08.391Z,100551.59
2018-05-17T01:04:35.779Z,100559.61
2018-05-17T01:07:03.166Z,100560.94
2018-05-17T01:09:30.582Z,100549.65
2018-05-17T01:11:57.979Z,100558.27
2018-05-17T01:14:25.367Z,100554.09
2018-05-17T01:16:52.760Z,100559.02
2018-05-17T01:19:20.298Z,100560.53
2018-05-17T01:21:47.682Z,100562.66
2018-05-17T01:24:15.134Z,100564.25
2018-05-17T01:26:42.565Z,100569.00
2018-05-17T01:29:09.912Z,100567.90
2018-05-17T01:31:37.291Z,100567.19
2018-05-17T01:34:04.688Z,100566.68
2018-05-17T01:36:32.075Z,100570.98
2018-05-17T01:38:59.470Z,100570.88
2018-05-17T01:41:26.854Z,100573.98
2018-05-17T01:43:54.255Z,100581.38
2018-05-17T01:46:21.638Z,100576.57
2018-05-17T01:48:49.036Z,100577.98
2018-05-17T01:51:16.423Z,100579.44
2018-05-17T01:53:43.878Z,100578.09
2018-05-17T01:56:11.271Z,100576.77
2018-05-17T01:58:38.654Z,100579.97
2018-05-17T02:01:06.054Z,100582.94
2018-05-17T02:03:33.443Z,100582.41
2018-05-17T02:06:00.875Z,100589.69
2018-05-17T02:08:28.254Z,100587.55
2018-05-17T02:10:55.669Z,100589.80
2018-05-17T02:13:23.056Z,100593.28
2018-05-17T02:15:50.447Z,100601.81
2018-05-17T02:18:17.842Z,100597.58
2018-05-17T02:20:45.222Z,100597.02
2018-05-17T02:23:12.614Z,100596.44
2018-05-17T02:25:40.007Z,100599.72
2018-05-17T02:28:07.402Z,100593.45
2018-05-17T02:30:34.786Z,100600.55
2018-05-17T02:33:02.175Z,100595.73
2018-05-17T02:35:29.568Z,100597.14
2018-05-17T02:37:56.963Z,100601.56
2018-05-17T02:40:24.355Z,100605.12
2018-05-17T02:42:51.739Z,100605.45
2018-05-17T02:45:19.147Z,100608.92
2018-05-17T02:47:46.540Z,100608.73
2018-05-17T02:50:13.918Z,100604.22
2018-05-17T02:52:41.314Z,100599.61
2018-05-17T02:55:08.703Z,100603.74
2018-05-17T02:57:36.107Z,100602.41
2018-05-17T03:00:03.495Z,100612.65
2018-05-17T03:02:30.895Z,100612.02
2018-05-17T03:04:58.275Z,100611.31
2018-05-17T03:07:25.671Z,100612.03
2018-05-17T03:09:53.062Z,100616.31
2018-05-17T03:12:20.478Z,100620.33
2018-05-17T03:14:47.871Z,100614.90
2018-05-17T03:17:15.262Z,100615.41
2018-05-17T03:19:42.658Z,100620.67
2018-05-17T03:22:10.047Z,100633.48
2018-05-17T03:24:37.442Z,100635.47
2018-05-17T03:27:04.832Z,100632.25
2018-05-17T03:29:32.223Z,100629.16
2018-05-17T03:31:59.609Z,100637.39
2018-05-17T03:34:27.170Z,100628.75
2018-05-17T03:36:54.554Z,100636.83
2018-05-17T03:39:21.954Z,100632.41
2018-05-17T03:41:49.350Z,100631.49
2018-05-17T03:44:16.735Z,100634.78
2018-05-17T03:46:44.136Z,100636.64
2018-05-17T03:49:11.529Z,100634.77
2018-05-17T03:51:38.919Z,100630.39
2018-05-17T03:54:06.311Z,100640.09
2018-05-17T03:56:33.717Z,100641.25
2018-05-17T03:59:01.113Z,100645.25
2018-05-17T04:01:40.150Z,100644.11
2018-05-17T04:04:19.334Z,100643.89
2018-05-17T04:06:46.722Z,100646.75
2018-05-17T04:09:14.118Z,100642.52
2018-05-17T04:11:41.515Z,100652.28
2018-05-17T04:14:08.898Z,100646.66
2018-05-17T04:16:36.295Z,100648.73
2018-05-17T04:19:03.694Z,100648.42
2018-05-17T04:21:31.104Z,100651.00
2018-05-17T04:23:58.494Z,100652.02
2018-05-17T04:26:25.938Z,100654.15
2018-05-17T04:28:53.307Z,100657.85
2018-05-17T04:31:20.688Z,100661.68
2018-05-17T04:33:48.087Z,100659.73
2018-05-17T04:36:16.282Z,100658.41
2018-05-17T04:38:43.665Z,100661.13
2018-05-17T04:41:11.062Z,100662.12
2018-05-17T04:43:38.451Z,100663.55
2018-05-17T04:46:05.887Z,100665.48
2018-05-17T04:48:33.259Z,100662.02
2018-05-17T04:51:00.646Z,100665.44
2018-05-17T04:53:28.037Z,100672.91
2018-05-17T04:55:55.424Z,100669.77
2018-05-17T04:58:22.823Z,100673.08
2018-05-17T05:00:50.216Z,100668.14
2018-05-17T05:03:17.609Z,100669.29
2018-05-17T05:05:44.994Z,100670.20
2018-05-17T05:08:12.394Z,100671.09
2018-05-17T05:10:39.783Z,100676.23
2018-05-17T05:13:07.167Z,100670.16
2018-05-17T05:15:34.559Z,100675.73
2018-05-17T05:18:01.992Z,100670.54
2018-05-17T05:20:29.388Z,100674.05
2018-05-17T05:22:56.799Z,100675.56
2018-05-17T05:25:24.298Z,100676.11
2018-05-17T05:27:51.602Z,100677.05
2018-05-17T05:30:18.995Z,100675.88
2018-05-17T05:32:46.399Z,100681.06
2018-05-17T05:35:13.775Z,100682.28
2018-05-17T05:37:41.202Z,100684.35
2018-05-17T05:40:08.555Z,100683.95
2018-05-17T05:42:35.958Z,100683.72
2018-05-17T05:45:03.347Z,100680.87
2018-05-17T05:47:30.748Z,100681.06
2018-05-17T05:49:58.211Z,100686.92
2018-05-17T05:52:25.604Z,100688.25
2018-05-17T05:54:52.998Z,100692.86
2018-05-17T05:57:20.398Z,100693.46
2018-05-17T05:59:47.802Z,100694.39
2018-05-17T06:02:15.189Z,100693.88
2018-05-17T06:04:42.579Z,100694.80
2018-05-17T06:07:10.043Z,100696.16
2018-05-17T06:09:37.367Z,100699.97
2018-05-17T06:12:04.756Z,100697.90
2018-05-17T06:14:32.167Z,100699.13
2018-05-17T06:16:59.572Z,100701.90
2018-05-17T06:19:26.980Z,100701.06
2018-05-17T06:21:54.375Z,100706.21
2018-05-17T06:24:21.826Z,100708.06
2018-05-17T06:26:49.203Z,100711.28
2018-05-17T06:29:16.589Z,100707.23
2018-05-17T06:31:43.990Z,100714.09
2018-05-17T06:34:11.461Z,100707.67
2018-05-17T06:36:38.831Z,100708.48
2018-05-17T06:39:06.225Z,100708.98
2018-05-17T06:41:33.615Z,100712.98
2018-05-17T06:44:01.027Z,100708.89
2018-05-17T06:46:28.398Z,100707.57
2018-05-17T06:48:55.786Z,100704.98
2018-05-17T06:51:23.174Z,100713.22
2018-05-17T06:53:50.568Z,100714.94
2018-05-17T06:56:17.959Z,100713.47
2018-05-17T06:58:45.355Z,100710.73
2018-05-17T07:01:12.784Z,100717.09
2018-05-17T07:03:40.139Z,100711.02
2018-05-17T07:06:07.539Z,100708.55
2018-05-17T07:08:34.928Z,100712.03
2018-05-17T07:11:02.322Z,100712.38
2018-05-17T07:13:29.920Z,100708.79
2018-05-17T07:15:57.307Z,100715.65
2018-05-17T07:18:24.882Z,100718.86
2018-05-17T07:20:52.090Z,100710.55
2018-05-17T07:23:19.491Z,100718.29
2018-05-17T07:25:46.884Z,100722.33
2018-05-17T07:28:14.276Z,100724.34
2018-05-17T07:30:41.727Z,100718.84
2018-05-17T07:33:09.116Z,100719.02
2018-05-17T07:35:36.510Z,100727.70
2018-05-17T07:38:03.894Z,100725.55
2018-05-17T07:40:31.308Z,100724.39
2018-05-17T07:42:58.690Z,100732.77
2018-05-17T07:45:26.120Z,100730.69
2018-05-17T07:47:53.663Z,100737.56
2018-05-17T07:50:21.047Z,100736.78
2018-05-17T07:52:48.443Z,100740.84
2018-05-17T07:55:15.831Z,100736.45
2018-05-17T07:57:43.226Z,100734.34
2018-05-17T08:00:10.615Z,100731.37
2018-05-17T08:02:38.023Z,100731.66
2018-05-17T08:05:05.406Z,100730.83
2018-05-17T08:07:32.810Z,100735.23
2018-05-17T08:10:00.203Z,100729.47
2018-05-17T08:12:27.670Z,100731.64
2018-05-17T08:14:55.185Z,100734.00
2018-05-17T08:17:22.563Z,100731.86
2018-05-17T08:19:49.951Z,100732.56
2018-05-17T08:22:17.347Z,100733.33
2018-05-17T08:24:44.747Z,100728.39
2018-05-17T08:27:12.163Z,100742.30
2018-05-17T08:29:39.543Z,100739.17
2018-05-17T08:32:06.935Z,100738.64
2018-05-17T08:34:34.326Z,100737.19
2018-05-17T08:37:01.832Z,100735.20
2018-05-17T08:39:29.225Z,100735.41
2018-05-17T08:41:56.625Z,100735.58
2018-05-17T08:44:24.007Z,100734.69
2018-05-17T08:46:51.395Z,100739.55
2018-05-17T08:49:18.787Z,100744.61
2018-05-17T08:51:46.175Z,100739.46
2018-05-17T08:54:13.571Z,100738.84
2018-05-17T08:56:40.955Z,100738.72
2018-05-17T08:59:08.358Z,100745.87
2018-05-17T09:01:35.750Z,100746.54
2018-05-17T09:04:03.135Z,100745.41
2018-05-17T09:06:30.587Z,100749.05
2018-05-17T09:08:58.005Z,100748.80
2018-05-17T09:11:25.360Z,100746.13
2018-05-17T09:13:52.881Z,100745.04
2018-05-17T09:16:20.175Z,100741.02
2018-05-17T09:18:47.607Z,100751.03
2018-05-17T09:21:14.970Z,100751.98
2018-05-17T09:23:42.362Z,100750.59
2018-05-17T09:26:09.759Z,100739.45
2018-05-17T09:28:37.160Z,100746.37
2018-05-17T09:31:04.539Z,100747.69
2018-05-17T09:33:31.939Z,100747.84
2018-05-17T09:35:59.327Z,100749.69
2018-05-17T09:38:26.779Z,100752.54
2018-05-17T09:40:54.173Z,100757.74
2018-05-17T09:43:21.559Z,100752.84
2018-05-17T09:45:49.003Z,100749.63
2018-05-17T09:48:16.392Z,100755.17
2018-05-17T09:50:43.787Z,100759.92
2018-05-17T09:53:11.175Z,100752.36
2018-05-17T09:55:38.563Z,100752.23
2018-05-17T09:58:06.079Z,100750.77
2018-05-17T10:00:33.495Z,100743.90
2018-05-17T10:03:00.883Z,100749.55
2018-05-17T10:05:28.338Z,100753.45
2018-05-17T10:07:55.732Z,100743.42
2018-05-17T10:10:23.127Z,100746.39
2018-05-17T10:12:50.518Z,100748.86
2018-05-17T10:15:17.906Z,100743.27
2018-05-17T10:17:45.295Z,100751.21
2018-05-17T10:20:12.698Z,100745.99
2018-05-17T10:22:40.098Z,100754.53
2018-05-17T10:25:07.491Z,100753.01
2018-05-17T10:27:34.891Z,100745.64
2018-05-17T10:30:02.274Z,100742.20
2018-05-17T10:32:29.663Z,100743.91
2018-05-17T10:34:57.059Z,100742.41
2018-05-17T10:37:24.453Z,100737.31
2018-05-17T10:39:51.831Z,100743.38
2018-05-17T10:42:19.294Z,100736.82
2018-05-17T10:44:46.630Z,100746.39
2018-05-17T10:47:14.011Z,100739.25
2018-05-17T10:49:41.398Z,100739.77
2018-05-17T10:52:08.803Z,100743.85
2018-05-17T10:54:36.304Z,100742.88
2018-05-17T10:57:03.622Z,100746.42
2018-05-17T10:59:31.011Z,100741.36
2018-05-17T11:01:58.410Z,100748.70
2018-05-17T11:04:25.795Z,100735.17
2018-05-17T11:06:53.186Z,100731.77
2018-05-17T11:09:20.706Z,100730.33
2018-05-17T11:11:48.091Z,100734.06
2018-05-17T11:14:15.478Z,100740.31
2018-05-17T11:16:42.878Z,100733.92
2018-05-17T11:19:10.266Z,100731.52
2018-05-17T11:21:37.656Z,100723.55
2018-05-17T11:24:05.059Z,100731.76
2018-05-17T11:26:32.452Z,100724.48
2018-05-17T11:28:59.848Z,100722.30
2018-05-17T11:31:27.237Z,100713.90
2018-05-17T11:33:54.627Z,100713.83
2018-05-17T11:36:22.017Z,100713.38
2018-05-17T11:38:49.403Z,100716.78
2018-05-17T11:41:16.806Z,100714.21
2018-05-17T11:43:44.204Z,100720.20
2018-05-17T11:46:11.598Z,100717.25
2018-05-17T11:48:38.980Z,100713.36
2018-05-17T11:51:06.391Z,100713.03
2018-05-17T11:53:33.770Z,100715.95
2018-05-17T11:56:01.165Z,100711.53
2018-05-17T11:58:28.558Z,100715.19
2018-05-17T12:00:55.951Z,100713.32
2018-05-17T12:03:23.342Z,100710.49
2018-05-17T12:05:50.734Z,100710.76
2018-05-17T12:08:18.122Z,100711.47
2018-05-17T12:10:45.507Z,100710.20
2018-05-17T12:13:12.903Z,100706.96
2018-05-17T12:15:40.286Z,100706.42
2018-05-17T12:18:07.679Z,100706.17
2018-05-17T12:20:35.083Z,100704.92
2018-05-17T12:23:02.563Z,100697.05
2018-05-17T12:25:29.870Z,100698.82
2018-05-17T12:27:57.258Z,100684.59
2018-05-17T12:30:24.651Z,100687.55
2018-05-17T12:32:52.039Z,100683.53
2018-05-17T12:35:19.439Z,100681.69
2018-05-17T12:37:46.826Z,100688.59
2018-05-17T12:40:14.215Z,100676.40
2018-05-17T12:42:41.638Z,100693.42
2018-05-17T12:45:08.989Z,100689.47
2018-05-17T12:47:36.387Z,100691.31
2018-05-17T12:50:03.782Z,100683.52
2018-05-17T12:52:31.175Z,100684.86
2018-05-17T12:54:58.559Z,100695.91
2018-05-17T12:57:25.967Z,100691.16
2018-05-17T12:59:53.346Z,100690.23
2018-05-17T13:02:20.738Z,100688.95
2018-05-17T13:04:48.131Z,100679.98
2018-05-17T13:07:15.531Z,100677.43
2018-05-17T13:09:42.919Z,100683.72
2018-05-17T13:12:10.303Z,100687.31
2018-05-17T13:14:37.696Z,100690.97
2018-05-17T13:17:05.088Z,100676.48
2018-05-17T13:19:32.486Z,100675.72
2018-05-17T13:21:59.874Z,100680.80
2018-05-17T13:24:27.278Z,100667.40
2018-05-17T13:26:54.666Z,100667.84
2018-05-17T13:29:22.063Z,100673.16
2018-05-17T13:31:49.450Z,100674.50
2018-05-17T13:34:16.917Z,100664.44
2018-05-17T13:36:44.239Z,100673.45
2018-05-17T13:39:11.629Z,100671.21
2018-05-17T13:41:39.013Z,100666.01
2018-05-17T13:44:06.399Z,100666.48
2018-05-17T13:46:33.791Z,100663.84
2018-05-17T13:49:01.233Z,100663.34
2018-05-17T13:51:28.558Z,100661.83
2018-05-17T13:53:55.951Z,100655.56
2018-05-17T13:56:23.349Z,100653.34
2018-05-17T13:58:50.734Z,100651.34
2018-05-17T14:01:18.135Z,100659.38
2018-05-17T14:03:45.529Z,100659.53
2018-05-17T14:06:12.919Z,100645.05
2018-05-17T14:08:40.311Z,100650.55
2018-05-17T14:11:07.707Z,100657.55
2018-05-17T14:13:35.103Z,100646.46
2018-05-17T14:16:02.494Z,100645.08
2018-05-17T14:18:29.891Z,100641.06
2018-05-17T14:20:57.275Z,100649.84
2018-05-17T14:23:24.679Z,100639.08
2018-05-17T14:25:52.070Z,100637.48
2018-05-17T14:28:19.572Z,100638.97
2018-05-17T14:30:46.870Z,100637.52
2018-05-17T14:33:14.261Z,100631.17
2018-05-17T14:35:41.661Z,100640.45
2018-05-17T14:38:09.043Z,100640.27
2018-05-17T14:40:36.447Z,100634.08
2018-05-17T14:43:04.436Z,100634.54
2018-05-17T14:45:31.862Z,100635.86
2018-05-17T14:47:59.254Z,100631.39
2018-05-17T14:50:26.647Z,100637.70
2018-05-17T14:52:54.026Z,100636.25
2018-05-17T14:55:21.517Z,100640.62
2018-05-17T14:57:48.902Z,100644.25
2018-05-17T15:00:16.291Z,100643.38
2018-05-17T15:02:43.683Z,100647.89
2018-05-17T15:05:11.127Z,100644.56
2018-05-17T15:07:38.620Z,100641.98
2018-05-17T15:10:07.685Z,100637.73
2018-05-17T15:12:35.320Z,100634.38
2018-05-17T15:15:02.715Z,100635.69
2018-05-17T15:17:30.110Z,100639.23
2018-05-17T15:19:57.499Z,100631.50
2018-05-17T15:22:24.942Z,100635.60
2018-05-17T15:24:52.330Z,100634.55
2018-05-17T15:27:19.828Z,100634.03
2018-05-17T15:29:47.266Z,100639.33
2018-05-17T15:32:14.530Z,100631.28
2018-05-17T15:34:41.923Z,100632.84
2018-05-17T15:37:09.319Z,100629.69
2018-05-17T15:39:36.728Z,100630.23
2018-05-17T15:42:04.115Z,100638.88
2018-05-17T15:44:31.499Z,100630.91
2018-05-17T15:46:58.892Z,100629.08
2018-05-17T15:49:26.289Z,100625.39
2018-05-17T15:51:53.674Z,100618.22
2018-05-17T15:54:21.075Z,100621.14
2018-05-17T15:56:48.467Z,100618.55
2018-05-17T15:59:15.883Z,100613.57
2018-05-17T16:01:43.271Z,100613.14
2018-05-17T16:04:10.725Z,100616.27
2018-05-17T16:06:38.071Z,100616.41
2018-05-17T16:09:06.254Z,100608.92
2018-05-17T16:11:33.672Z,100612.22
2018-05-17T16:14:01.083Z,100605.93
2018-05-17T16:16:28.507Z,100605.10
2018-05-17T16:18:55.905Z,100609.58
2018-05-17T16:21:23.356Z,100606.13
2018-05-17T16:23:50.742Z,100606.16
2018-05-17T16:26:18.131Z,100607.27
2018-05-17T16:28:45.527Z,100600.05
2018-05-17T16:31:12.915Z,100606.92
2018-05-17T16:33:40.306Z,100602.47
2018-05-17T16:36:07.691Z,100606.14
2018-05-17T16:38:35.090Z,100602.51
2018-05-17T16:41:02.480Z,100608.56
2018-05-17T16:43:29.867Z,100594.65
2018-05-17T16:45:57.259Z,100597.72
2018-05-17T16:48:24.767Z,100596.56
2018-05-17T16:50:52.043Z,100604.61
2018-05-17T16:53:19.575Z,100595.49
2018-05-17T16:55:46.831Z,100604.70
2018-05-17T16:58:14.235Z,100611.97
2018-05-17T17:00:41.732Z,100616.02
2018-05-17T17:03:09.038Z,100610.65
2018-05-17T17:05:36.430Z,100614.18
2018-05-17T17:08:04.265Z,100613.30
2018-05-17T17:10:31.658Z,100609.58
2018-05-17T17:12:59.050Z,100614.47
2018-05-17T17:15:26.445Z,100611.59
2018-05-17T17:17:53.906Z,100622.06
2018-05-17T17:20:21.307Z,100618.72
2018-05-17T17:22:48.704Z,100615.59
2018-05-17T17:25:16.091Z,100613.59
2018-05-17T17:27:43.478Z,100611.25
2018-05-17T17:30:10.871Z,100615.73
2018-05-17T17:32:38.263Z,100623.24
2018-05-17T17:35:05.673Z,100619.33
2018-05-17T17:37:33.063Z,100614.73
2018-05-17T17:40:00.448Z,100618.45
2018-05-17T17:42:27.839Z,100618.39
2018-05-17T17:44:55.251Z,100625.25
2018-05-17T17:47:22.689Z,100620.48
2018-05-17T17:49:50.275Z,100620.80
2018-05-17T17:52:17.607Z,100624.46
2018-05-17T17:54:44.987Z,100627.14
2018-05-17T17:57:12.499Z,100619.40
2018-05-17T17:59:39.967Z,100620.92
2018-05-17T18:02:07.363Z,100626.31
2018-05-17T18:04:35.053Z,100621.97
2018-05-17T18:07:02.524Z,100628.45
2018-05-17T18:09:29.919Z,100625.27
2018-05-17T18:11:59.094Z,100626.92
2018-05-17T18:14:26.875Z,100628.25
2018-05-17T18:16:55.820Z,100624.75
2018-05-17T18:19:23.278Z,100632.31
2018-05-17T18:21:50.711Z,100632.48
2018-05-17T18:24:18.157Z,100634.36
2018-05-17T18:26:45.534Z,100640.18
2018-05-17T18:29:12.931Z,100637.26
2018-05-17T18:31:40.314Z,100641.23
2018-05-17T18:34:07.719Z,100639.39
2018-05-17T18:36:35.109Z,100644.69
2018-05-17T18:39:02.487Z,100643.05
2018-05-17T18:41:29.868Z,100645.59
2018-05-17T18:43:57.262Z,100643.77
2018-05-17T18:46:24.652Z,100639.45
2018-05-17T18:48:52.169Z,100648.09
2018-05-17T18:51:19.627Z,100646.20
2018-05-17T18:53:47.038Z,100650.54
2018-05-17T18:56:14.541Z,100651.38
2018-05-17T18:58:41.950Z,100654.89
2018-05-17T19:01:09.342Z,100653.26
2018-05-17T19:03:36.778Z,100667.56
2018-05-17T19:06:04.176Z,100665.33
2018-05-17T19:08:31.586Z,100668.56
2018-05-17T19:10:58.998Z,100672.09
2018-05-17T19:13:26.395Z,100679.55
2018-05-17T19:15:53.788Z,100680.87
2018-05-17T19:18:21.179Z,100683.81
2018-05-17T19:20:48.581Z,100694.28
2018-05-17T19:23:15.980Z,100698.14
2018-05-17T19:25:43.485Z,100697.51
2018-05-17T19:28:10.862Z,100703.81
2018-05-17T19:30:38.266Z,100702.41
2018-05-17T19:33:06.412Z,100706.72
2018-05-17T19:35:33.798Z,100702.99
2018-05-17T19:38:01.195Z,100705.98
2018-05-17T19:40:28.758Z,100711.47
2018-05-17T19:42:56.150Z,100713.91
2018-05-17T19:45:23.639Z,100715.63
2018-05-17T19:47:50.940Z,100714.98
2018-05-17T19:50:18.335Z,100719.03
2018-05-17T19:52:45.754Z,100716.81
2018-05-17T19:55:13.231Z,100718.87
2018-05-17T19:57:40.626Z,100729.10
2018-05-17T20:00:08.011Z,100725.52
2018-05-17T20:02:35.432Z,100726.32
2018-05-17T20:05:02.867Z,100724.02
2018-05-17T20:07:30.207Z,100738.15
2018-05-17T20:09:57.598Z,100736.84
2018-05-17T20:12:24.987Z,100739.19
2018-05-17T20:14:52.383Z,100735.83
2018-05-17T20:17:19.771Z,100737.28
2018-05-17T20:19:47.175Z,100739.69
2018-05-17T20:22:14.559Z,100736.05
2018-05-17T20:24:41.963Z,100743.84
2018-05-17T20:27:09.355Z,100747.36
2018-05-17T20:29:36.755Z,100742.30
2018-05-17T20:32:04.144Z,100750.40
2018-05-17T20:34:31.539Z,100746.41
2018-05-17T20:36:58.919Z,100752.08
2018-05-17T20:39:26.315Z,100754.66
2018-05-17T20:41:53.707Z,100749.35
2018-05-17T20:44:21.102Z,100754.20
2018-05-17T20:46:48.498Z,100753.31
2018-05-17T20:49:15.968Z,100745.85
2018-05-17T20:51:43.362Z,100746.38
2018-05-17T20:54:10.780Z,100749.30
2018-05-17T20:56:38.226Z,100752.63
2018-05-17T20:59:05.595Z,100755.45
2018-05-17T21:01:32.986Z,100758.87
2018-05-17T21:04:00.375Z,100761.81
2018-05-17T21:06:27.780Z,100762.46
2018-05-17T21:08:55.176Z,100756.30
2018-05-17T21:11:22.575Z,100755.69
2018-05-17T21:13:49.975Z,100757.89
2018-05-17T21:16:17.366Z,100760.36
2018-05-17T21:18:44.770Z,100757.70
2018-05-17T21:21:12.191Z,100762.96
2018-05-17T21:23:39.575Z,100765.52
2018-05-17T21:26:06.970Z,100763.28
2018-05-17T21:28:34.358Z,100766.88
2018-05-17T21:31:01.744Z,100771.12
2018-05-17T21:33:29.139Z,100779.03
2018-05-17T21:35:56.519Z,100775.44
2018-05-17T21:38:23.918Z,100777.41
2018-05-17T21:40:51.302Z,100778.94
2018-05-17T21:43:18.700Z,100772.37
2018-05-17T21:45:46.091Z,100777.83
2018-05-17T21:48:13.481Z,100775.95
2018-05-17T21:50:40.871Z,100780.61
2018-05-17T21:53:08.267Z,100785.23
2018-05-17T21:55:35.785Z,100789.84
2018-05-17T21:58:03.202Z,100782.66
2018-05-17T22:00:30.594Z,100784.91
2018-05-17T22:02:57.990Z,100788.50
2018-05-17T22:05:25.377Z,100783.15
2018-05-17T22:07:52.758Z,100791.89
2018-05-17T22:10:20.162Z,100788.39
2018-05-17T22:12:47.555Z,100790.22
2018-05-17T22:15:14.950Z,100787.85
2018-05-17T22:17:42.337Z,100783.11
2018-05-17T22:20:09.843Z,100791.53
2018-05-17T22:22:37.223Z,100792.33
2018-05-17T22:25:04.615Z,100793.77
2018-05-17T22:27:32.002Z,100795.00
2018-05-17T22:29:59.399Z,100797.95
2018-05-17T22:32:26.803Z,100795.80
2018-05-17T22:34:54.191Z,100793.20
2018-05-17T22:37:21.579Z,100788.47
2018-05-17T22:39:48.964Z,100790.77
2018-05-17T22:42:16.359Z,100788.95
2018-05-17T22:44:43.744Z,100787.78
2018-05-17T22:47:11.147Z,100783.45
2018-05-17T22:49:38.530Z,100788.91
2018-05-17T22:52:06.026Z,100792.30
2018-05-17T22:54:33.415Z,100789.63
2018-05-17T22:57:10.463Z,100786.67
2018-05-17T22:59:37.854Z,100783.64
2018-05-17T23:02:05.250Z,100780.23
2018-05-17T23:04:32.653Z,100780.25
2018-05-17T23:07:00.058Z,100780.44
2018-05-17T23:09:27.447Z,100776.73
2018-05-17T23:11:54.835Z,100778.25
2018-05-17T23:14:22.222Z,100785.35
2018-05-17T23:16:49.615Z,100786.88
2018-05-17T23:19:17.008Z,100781.80
2018-05-17T23:21:44.398Z,100782.67
2018-05-17T23:24:11.783Z,100775.27
2018-05-17T23:26:39.170Z,100780.72
2018-05-17T23:29:06.702Z,100782.05
2018-05-17T23:31:34.087Z,100779.34
2018-05-17T23:34:01.479Z,100777.09
2018-05-17T23:36:28.867Z,100780.38
2018-05-17T23:38:56.273Z,100772.48
2018-05-17T23:44:22.412Z,100767.31
2018-05-17T23:46:49.802Z,100768.63
2018-05-17T23:49:17.190Z,100767.88
2018-05-17T23:51:44.574Z,100770.14
2018-05-17T23:54:12.398Z,100771.39
2018-05-17T23:56:39.787Z,100769.52
2018-05-17T23:59:07.174Z,100770.42
